Airfield :
LOGIN :

Register | Disclaimer

   EN    FR    IT 

 










Legend :    VFR   Marginal VFR   IFR   Intensive IFR   Very Intensive IFR
Visi :
Ceiling :
>= 8 km
>= 3000ft
5 to 8 km
1000 to 3000 ft
1500m to 5 km
500 to 1000 ft
800 to 1500m
200 to 500 ft
< 800m
< 200 ft
Symbols :   Thunderstorms  Fog  Heavy snow  Heavy precipitations  Wind > 20 kt
SIGMETs :     Misc.  Thunderstorms  Icing  Turbulence  Mountain Waves  Volcanic Ashes






- Airport Elevation : 36 ft
- IATA code : LTQ


LFAT - Le Touquet

CURRENT METAR :
  • 190800Z AUTO VRB02KT 6000 NSC 15/14 Q1013 NOSIG

EXPIRED METARs :
  • 190730Z AUTO 15002KT 5000 BR NSC 14/14 Q1013 NOSIG
  • 190700Z AUTO 14003KT 4600 BR NSC 13/13 Q1013 BECMG 9999 NSW
  • 190630Z AUTO 15003KT 5000 BR NSC 13/13 Q1013 NOSIG
  • 190600Z AUTO 14004KT 4300 BR NSC 12/12 Q1012 NOSIG
  • 190530Z AUTO 15004KT 5000 BR NSC 12/12 Q1012 NOSIG

TAF AMD TAF LFAT
Valid from the 19 at 08:00 until the 19 at 15:00 UTC


190807Z 1908/1915 15005KT CAVOK
TEMPO 1908/1910 4000 BR
ATIS : +33 3 21 06 62 84



MET'MAP, your aeronautical weather chart ! - Copyright ORBIFLY December 2007 - Disclaimer

ORBIFLY MET'MAP TEAM :

Programming & Development : Alexandra Zaïnal
Concept & original design : Baudouin d'Aumeries
Assistance for programming : Marc-Olivier Méhu
Technical & hardware support : Manuel Goepfert

Contact : metmap@orbifly.com




SOURCES & CREDITS :

   NOAA